sensor_id;sensor_type;location;lat;lon;timestamp;P1;durP1;ratioP1;P2;durP2;ratioP2
22764;SDS011;11549;50.852;3.816;2022-12-26T00:01:28;26.58;;;16.65;;
22764;SDS011;11549;50.852;3.816;2022-12-26T00:03:58;24.25;;;16.50;;
22764;SDS011;11549;50.852;3.816;2022-12-26T00:06:27;22.38;;;15.60;;
22764;SDS011;11549;50.852;3.816;2022-12-26T00:08:57;22.90;;;16.05;;
22764;SDS011;11549;50.852;3.816;2022-12-26T00:11:26;20.88;;;14.82;;
22764;SDS011;11549;50.852;3.816;2022-12-26T00:13:56;21.25;;;15.02;;
22764;SDS011;11549;50.852;3.816;2022-12-26T00:16:25;19.17;;;14.13;;
22764;SDS011;11549;50.852;3.816;2022-12-26T00:18:55;19.77;;;13.27;;
22764;SDS011;11549;50.852;3.816;2022-12-26T00:21:25;19.30;;;14.20;;
22764;SDS011;11549;50.852;3.816;2022-12-26T00:23:54;19.77;;;13.88;;
22764;SDS011;11549;50.852;3.816;2022-12-26T00:26:24;19.60;;;13.73;;
22764;SDS011;11549;50.852;3.816;2022-12-26T00:28:53;19.85;;;13.85;;
22764;SDS011;11549;50.852;3.816;2022-12-26T00:31:23;19.20;;;13.90;;
22764;SDS011;11549;50.852;3.816;2022-12-26T00:33:53;19.17;;;13.45;;
22764;SDS011;11549;50.852;3.816;2022-12-26T00:36:23;17.90;;;12.77;;
22764;SDS011;11549;50.852;3.816;2022-12-26T00:38:55;16.33;;;12.15;;
22764;SDS011;11549;50.852;3.816;2022-12-26T00:41:25;14.82;;;11.40;;
22764;SDS011;11549;50.852;3.816;2022-12-26T00:43:53;14.98;;;10.90;;
22764;SDS011;11549;50.852;3.816;2022-12-26T00:46:22;13.93;;;10.65;;
22764;SDS011;11549;50.852;3.816;2022-12-26T00:48:51;13.25;;;10.68;;
22764;SDS011;11549;50.852;3.816;2022-12-26T00:51:20;13.25;;;10.15;;
22764;SDS011;11549;50.852;3.816;2022-12-26T00:53:50;13.18;;;9.82;;
22764;SDS011;11549;50.852;3.816;2022-12-26T00:56:19;13.30;;;10.27;;
22764;SDS011;11549;50.852;3.816;2022-12-26T00:58:47;14.52;;;10.07;;
22764;SDS011;11549;50.852;3.816;2022-12-26T01:01:16;14.13;;;9.48;;
22764;SDS011;11549;50.852;3.816;2022-12-26T01:03:47;11.55;;;9.30;;
22764;SDS011;11549;50.852;3.816;2022-12-26T01:06:16;12.48;;;8.57;;
22764;SDS011;11549;50.852;3.816;2022-12-26T01:08:45;12.82;;;8.77;;
22764;SDS011;11549;50.852;3.816;2022-12-26T01:11:15;11.38;;;8.27;;
22764;SDS011;11549;50.852;3.816;2022-12-26T01:14:05;12.35;;;8.02;;
22764;SDS011;11549;50.852;3.816;2022-12-26T01:16:35;9.82;;;7.72;;
22764;SDS011;11549;50.852;3.816;2022-12-26T01:19:04;13.35;;;7.65;;
22764;SDS011;11549;50.852;3.816;2022-12-26T01:21:33;10.57;;;7.90;;
22764;SDS011;11549;50.852;3.816;2022-12-26T01:24:01;11.50;;;7.70;;
22764;SDS011;11549;50.852;3.816;2022-12-26T01:26:31;12.25;;;8.07;;
22764;SDS011;11549;50.852;3.816;2022-12-26T01:28:59;12.30;;;7.80;;
22764;SDS011;11549;50.852;3.816;2022-12-26T01:31:27;12.15;;;9.32;;
22764;SDS011;11549;50.852;3.816;2022-12-26T01:33:56;14.35;;;8.75;;
22764;SDS011;11549;50.852;3.816;2022-12-26T01:36:24;12.38;;;8.50;;
22764;SDS011;11549;50.852;3.816;2022-12-26T01:38:53;11.45;;;8.57;;
22764;SDS011;11549;50.852;3.816;2022-12-26T01:41:21;11.30;;;8.57;;
22764;SDS011;11549;50.852;3.816;2022-12-26T01:43:53;11.40;;;8.30;;
22764;SDS011;11549;50.852;3.816;2022-12-26T01:46:25;12.73;;;9.25;;
22764;SDS011;11549;50.852;3.816;2022-12-26T01:48:57;11.52;;;8.88;;
22764;SDS011;11549;50.852;3.816;2022-12-26T01:51:34;13.52;;;9.27;;
22764;SDS011;11549;50.852;3.816;2022-12-26T01:54:06;12.15;;;8.60;;
22764;SDS011;11549;50.852;3.816;2022-12-26T01:56:57;11.88;;;8.50;;
22764;SDS011;11549;50.852;3.816;2022-12-26T01:59:29;12.25;;;8.82;;
22764;SDS011;11549;50.852;3.816;2022-12-26T02:02:02;12.95;;;9.00;;
22764;SDS011;11549;50.852;3.816;2022-12-26T02:04:33;14.30;;;9.20;;
22764;SDS011;11549;50.852;3.816;2022-12-26T02:07:38;10.80;;;8.02;;
22764;SDS011;11549;50.852;3.816;2022-12-26T02:10:11;12.57;;;8.38;;
22764;SDS011;11549;50.852;3.816;2022-12-26T02:12:44;12.13;;;8.30;;
22764;SDS011;11549;50.852;3.816;2022-12-26T02:15:16;12.70;;;8.90;;
22764;SDS011;11549;50.852;3.816;2022-12-26T02:17:45;11.98;;;8.75;;
22764;SDS011;11549;50.852;3.816;2022-12-26T02:20:16;11.45;;;8.52;;
22764;SDS011;11549;50.852;3.816;2022-12-26T02:22:54;12.43;;;8.75;;
22764;SDS011;11549;50.852;3.816;2022-12-26T02:25:51;13.02;;;8.95;;
22764;SDS011;11549;50.852;3.816;2022-12-26T02:28:58;14.02;;;9.98;;
22764;SDS011;11549;50.852;3.816;2022-12-26T02:31:54;13.90;;;9.38;;
22764;SDS011;11549;50.852;3.816;2022-12-26T02:34:30;13.80;;;10.23;;
22764;SDS011;11549;50.852;3.816;2022-12-26T02:37:10;14.00;;;10.40;;
22764;SDS011;11549;50.852;3.816;2022-12-26T02:39:53;15.90;;;9.82;;
22764;SDS011;11549;50.852;3.816;2022-12-26T02:42:32;14.50;;;10.13;;
22764;SDS011;11549;50.852;3.816;2022-12-26T02:45:10;13.68;;;10.27;;
22764;SDS011;11549;50.852;3.816;2022-12-26T02:48:06;16.20;;;11.05;;
22764;SDS011;11549;50.852;3.816;2022-12-26T02:50:43;20.60;;;12.70;;
22764;SDS011;11549;50.852;3.816;2022-12-26T02:53:38;23.55;;;14.40;;
22764;SDS011;11549;50.852;3.816;2022-12-26T02:56:31;31.10;;;18.63;;
22764;SDS011;11549;50.852;3.816;2022-12-26T02:59:22;31.70;;;18.20;;
22764;SDS011;11549;50.852;3.816;2022-12-26T03:02:29;29.08;;;18.20;;
22764;SDS011;11549;50.852;3.816;2022-12-26T03:05:23;31.80;;;18.40;;
22764;SDS011;11549;50.852;3.816;2022-12-26T03:08:17;30.77;;;18.10;;
22764;SDS011;11549;50.852;3.816;2022-12-26T03:11:07;26.48;;;16.88;;
22764;SDS011;11549;50.852;3.816;2022-12-26T03:13:53;25.17;;;16.17;;
22764;SDS011;11549;50.852;3.816;2022-12-26T03:16:26;25.27;;;15.25;;
22764;SDS011;11549;50.852;3.816;2022-12-26T03:19:23;19.77;;;12.95;;
22764;SDS011;11549;50.852;3.816;2022-12-26T03:21:56;15.50;;;11.02;;
22764;SDS011;11549;50.852;3.816;2022-12-26T03:24:27;17.02;;;10.68;;
22764;SDS011;11549;50.852;3.816;2022-12-26T03:27:16;14.60;;;10.23;;
22764;SDS011;11549;50.852;3.816;2022-12-26T03:29:43;15.93;;;10.80;;
22764;SDS011;11549;50.852;3.816;2022-12-26T03:32:31;14.32;;;10.38;;
22764;SDS011;11549;50.852;3.816;2022-12-26T03:35:10;14.60;;;10.20;;
22764;SDS011;11549;50.852;3.816;2022-12-26T03:37:44;15.02;;;10.18;;
22764;SDS011;11549;50.852;3.816;2022-12-26T03:43:40;12.77;;;9.15;;
22764;SDS011;11549;50.852;3.816;2022-12-26T03:46:38;12.68;;;8.23;;
22764;SDS011;11549;50.852;3.816;2022-12-26T03:49:32;11.73;;;8.32;;
22764;SDS011;11549;50.852;3.816;2022-12-26T03:52:22;13.75;;;9.05;;
22764;SDS011;11549;50.852;3.816;2022-12-26T03:55:17;13.63;;;8.18;;
22764;SDS011;11549;50.852;3.816;2022-12-26T03:58:09;12.85;;;7.43;;
22764;SDS011;11549;50.852;3.816;2022-12-26T04:01:00;13.35;;;7.75;;
22764;SDS011;11549;50.852;3.816;2022-12-26T04:03:50;16.45;;;8.55;;
22764;SDS011;11549;50.852;3.816;2022-12-26T04:06:42;12.30;;;8.65;;
22764;SDS011;11549;50.852;3.816;2022-12-26T04:09:38;13.23;;;7.75;;
22764;SDS011;11549;50.852;3.816;2022-12-26T04:12:30;15.63;;;8.55;;
22764;SDS011;11549;50.852;3.816;2022-12-26T04:15:23;15.15;;;8.23;;
22764;SDS011;11549;50.852;3.816;2022-12-26T04:18:13;14.95;;;8.20;;
22764;SDS011;11549;50.852;3.816;2022-12-26T04:21:10;13.30;;;7.70;;
22764;SDS011;11549;50.852;3.816;2022-12-26T04:23:56;14.25;;;7.93;;
22764;SDS011;11549;50.852;3.816;2022-12-26T04:26:46;16.20;;;8.02;;
22764;SDS011;11549;50.852;3.816;2022-12-26T04:29:38;13.18;;;7.97;;
22764;SDS011;11549;50.852;3.816;2022-12-26T04:32:26;11.60;;;7.05;;
22764;SDS011;11549;50.852;3.816;2022-12-26T04:35:19;12.35;;;7.20;;
22764;SDS011;11549;50.852;3.816;2022-12-26T04:38:08;11.05;;;6.53;;
22764;SDS011;11549;50.852;3.816;2022-12-26T04:40:58;10.38;;;6.43;;
22764;SDS011;11549;50.852;3.816;2022-12-26T04:43:45;10.57;;;6.13;;
22764;SDS011;11549;50.852;3.816;2022-12-26T04:46:36;9.02;;;5.65;;
22764;SDS011;11549;50.852;3.816;2022-12-26T04:49:07;10.30;;;6.13;;
22764;SDS011;11549;50.852;3.816;2022-12-26T04:51:56;10.70;;;5.72;;
22764;SDS011;11549;50.852;3.816;2022-12-26T04:54:26;7.55;;;5.30;;
22764;SDS011;11549;50.852;3.816;2022-12-26T04:56:55;10.63;;;5.68;;
22764;SDS011;11549;50.852;3.816;2022-12-26T04:59:23;10.27;;;5.70;;
22764;SDS011;11549;50.852;3.816;2022-12-26T05:01:54;10.35;;;5.88;;
22764;SDS011;11549;50.852;3.816;2022-12-26T05:04:40;8.57;;;5.45;;
22764;SDS011;11549;50.852;3.816;2022-12-26T05:07:27;8.40;;;5.20;;
22764;SDS011;11549;50.852;3.816;2022-12-26T05:10:16;8.27;;;5.53;;
22764;SDS011;11549;50.852;3.816;2022-12-26T05:12:45;9.10;;;5.50;;
22764;SDS011;11549;50.852;3.816;2022-12-26T05:15:14;9.60;;;5.80;;
22764;SDS011;11549;50.852;3.816;2022-12-26T05:17:44;7.40;;;5.38;;
22764;SDS011;11549;50.852;3.816;2022-12-26T05:20:30;8.55;;;5.00;;
22764;SDS011;11549;50.852;3.816;2022-12-26T05:23:16;8.90;;;5.47;;
22764;SDS011;11549;50.852;3.816;2022-12-26T05:26:05;8.88;;;5.15;;
22764;SDS011;11549;50.852;3.816;2022-12-26T05:28:59;9.40;;;5.55;;
22764;SDS011;11549;50.852;3.816;2022-12-26T05:31:29;9.68;;;6.07;;
22764;SDS011;11549;50.852;3.816;2022-12-26T05:34:04;9.35;;;6.00;;
22764;SDS011;11549;50.852;3.816;2022-12-26T05:36:33;8.35;;;5.88;;
22764;SDS011;11549;50.852;3.816;2022-12-26T05:39:04;8.63;;;6.13;;
22764;SDS011;11549;50.852;3.816;2022-12-26T05:41:33;11.90;;;5.90;;
22764;SDS011;11549;50.852;3.816;2022-12-26T05:44:02;8.40;;;5.82;;
22764;SDS011;11549;50.852;3.816;2022-12-26T05:46:31;9.35;;;5.78;;
22764;SDS011;11549;50.852;3.816;2022-12-26T05:49:00;6.95;;;5.18;;
22764;SDS011;11549;50.852;3.816;2022-12-26T05:51:29;6.95;;;4.95;;
22764;SDS011;11549;50.852;3.816;2022-12-26T05:53:59;10.98;;;5.30;;
22764;SDS011;11549;50.852;3.816;2022-12-26T05:56:27;8.60;;;5.97;;
22764;SDS011;11549;50.852;3.816;2022-12-26T05:58:56;7.40;;;5.47;;
22764;SDS011;11549;50.852;3.816;2022-12-26T06:01:27;7.82;;;5.65;;
22764;SDS011;11549;50.852;3.816;2022-12-26T06:03:57;7.72;;;4.97;;
22764;SDS011;11549;50.852;3.816;2022-12-26T06:06:26;9.82;;;5.32;;
22764;SDS011;11549;50.852;3.816;2022-12-26T06:08:56;9.30;;;5.20;;
22764;SDS011;11549;50.852;3.816;2022-12-26T06:11:25;9.00;;;4.90;;
22764;SDS011;11549;50.852;3.816;2022-12-26T06:13:54;8.40;;;5.50;;
22764;SDS011;11549;50.852;3.816;2022-12-26T06:16:22;8.45;;;4.70;;
22764;SDS011;11549;50.852;3.816;2022-12-26T06:18:51;8.07;;;4.50;;
22764;SDS011;11549;50.852;3.816;2022-12-26T06:21:21;5.47;;;4.10;;
22764;SDS011;11549;50.852;3.816;2022-12-26T06:23:50;6.32;;;4.22;;
22764;SDS011;11549;50.852;3.816;2022-12-26T06:26:20;7.15;;;3.75;;
22764;SDS011;11549;50.852;3.816;2022-12-26T06:28:49;7.57;;;3.83;;
22764;SDS011;11549;50.852;3.816;2022-12-26T06:31:18;7.28;;;3.80;;
22764;SDS011;11549;50.852;3.816;2022-12-26T06:33:48;6.05;;;3.83;;
22764;SDS011;11549;50.852;3.816;2022-12-26T06:36:18;8.43;;;4.75;;
22764;SDS011;11549;50.852;3.816;2022-12-26T06:38:48;8.23;;;4.50;;
22764;SDS011;11549;50.852;3.816;2022-12-26T06:41:18;7.45;;;4.25;;
22764;SDS011;11549;50.852;3.816;2022-12-26T06:43:48;10.32;;;5.28;;
22764;SDS011;11549;50.852;3.816;2022-12-26T06:46:18;6.60;;;4.03;;
22764;SDS011;11549;50.852;3.816;2022-12-26T06:48:48;8.25;;;3.75;;
22764;SDS011;11549;50.852;3.816;2022-12-26T06:51:17;6.65;;;3.03;;
22764;SDS011;11549;50.852;3.816;2022-12-26T06:53:46;6.75;;;2.90;;
22764;SDS011;11549;50.852;3.816;2022-12-26T06:56:16;5.82;;;3.28;;
22764;SDS011;11549;50.852;3.816;2022-12-26T06:58:47;4.75;;;2.90;;
22764;SDS011;11549;50.852;3.816;2022-12-26T07:01:19;8.88;;;2.83;;
22764;SDS011;11549;50.852;3.816;2022-12-26T07:03:47;6.75;;;2.78;;
22764;SDS011;11549;50.852;3.816;2022-12-26T07:06:20;7.20;;;2.70;;
22764;SDS011;11549;50.852;3.816;2022-12-26T07:08:51;6.07;;;2.38;;
22764;SDS011;11549;50.852;3.816;2022-12-26T07:11:20;7.15;;;2.78;;
22764;SDS011;11549;50.852;3.816;2022-12-26T07:13:52;5.05;;;2.50;;
22764;SDS011;11549;50.852;3.816;2022-12-26T07:16:21;6.55;;;2.28;;
22764;SDS011;11549;50.852;3.816;2022-12-26T07:18:50;7.00;;;2.45;;
22764;SDS011;11549;50.852;3.816;2022-12-26T07:21:20;6.38;;;2.22;;
22764;SDS011;11549;50.852;3.816;2022-12-26T07:23:49;7.00;;;2.55;;
22764;SDS011;11549;50.852;3.816;2022-12-26T07:26:18;7.82;;;2.28;;
22764;SDS011;11549;50.852;3.816;2022-12-26T07:28:47;4.20;;;2.10;;
22764;SDS011;11549;50.852;3.816;2022-12-26T07:31:17;7.13;;;2.60;;
22764;SDS011;11549;50.852;3.816;2022-12-26T07:33:46;5.93;;;2.38;;
22764;SDS011;11549;50.852;3.816;2022-12-26T07:36:15;5.60;;;2.10;;
22764;SDS011;11549;50.852;3.816;2022-12-26T07:38:44;5.20;;;2.40;;
22764;SDS011;11549;50.852;3.816;2022-12-26T07:41:12;6.90;;;2.20;;
22764;SDS011;11549;50.852;3.816;2022-12-26T07:43:58;5.78;;;2.38;;
22764;SDS011;11549;50.852;3.816;2022-12-26T07:46:28;7.20;;;2.33;;
22764;SDS011;11549;50.852;3.816;2022-12-26T07:48:57;5.97;;;2.20;;
22764;SDS011;11549;50.852;3.816;2022-12-26T07:51:26;5.40;;;2.60;;
22764;SDS011;11549;50.852;3.816;2022-12-26T07:53:54;7.72;;;2.60;;
22764;SDS011;11549;50.852;3.816;2022-12-26T07:56:23;6.05;;;2.17;;
22764;SDS011;11549;50.852;3.816;2022-12-26T07:58:51;6.65;;;2.30;;
22764;SDS011;11549;50.852;3.816;2022-12-26T08:01:20;5.70;;;2.63;;
22764;SDS011;11549;50.852;3.816;2022-12-26T08:03:50;9.80;;;2.38;;
22764;SDS011;11549;50.852;3.816;2022-12-26T08:06:19;9.32;;;3.35;;
22764;SDS011;11549;50.852;3.816;2022-12-26T08:08:49;6.63;;;2.13;;
22764;SDS011;11549;50.852;3.816;2022-12-26T08:11:18;7.85;;;2.47;;
22764;SDS011;11549;50.852;3.816;2022-12-26T08:13:50;7.22;;;2.65;;
22764;SDS011;11549;50.852;3.816;2022-12-26T08:16:21;9.38;;;3.50;;
22764;SDS011;11549;50.852;3.816;2022-12-26T08:18:51;7.13;;;2.70;;
22764;SDS011;11549;50.852;3.816;2022-12-26T08:21:19;9.13;;;2.50;;
22764;SDS011;11549;50.852;3.816;2022-12-26T08:23:47;8.68;;;2.85;;
22764;SDS011;11549;50.852;3.816;2022-12-26T08:26:16;10.52;;;2.70;;
22764;SDS011;11549;50.852;3.816;2022-12-26T08:28:49;8.65;;;3.03;;
22764;SDS011;11549;50.852;3.816;2022-12-26T08:31:18;10.75;;;2.80;;
22764;SDS011;11549;50.852;3.816;2022-12-26T08:33:47;8.82;;;2.40;;
22764;SDS011;11549;50.852;3.816;2022-12-26T08:36:17;9.45;;;2.50;;
22764;SDS011;11549;50.852;3.816;2022-12-26T08:38:45;7.43;;;2.25;;
22764;SDS011;11549;50.852;3.816;2022-12-26T08:41:13;9.00;;;2.50;;
22764;SDS011;11549;50.852;3.816;2022-12-26T08:43:46;8.35;;;2.50;;
22764;SDS011;11549;50.852;3.816;2022-12-26T08:46:35;9.77;;;3.15;;
22764;SDS011;11549;50.852;3.816;2022-12-26T08:49:04;9.20;;;3.03;;
22764;SDS011;11549;50.852;3.816;2022-12-26T08:51:34;12.25;;;3.20;;
22764;SDS011;11549;50.852;3.816;2022-12-26T08:54:02;8.10;;;2.70;;
22764;SDS011;11549;50.852;3.816;2022-12-26T08:56:31;8.10;;;3.00;;
22764;SDS011;11549;50.852;3.816;2022-12-26T08:59:00;7.15;;;3.05;;
22764;SDS011;11549;50.852;3.816;2022-12-26T09:01:29;12.10;;;3.97;;
22764;SDS011;11549;50.852;3.816;2022-12-26T09:03:59;7.78;;;3.00;;
22764;SDS011;11549;50.852;3.816;2022-12-26T09:06:30;11.70;;;3.28;;
22764;SDS011;11549;50.852;3.816;2022-12-26T09:09:01;10.10;;;3.17;;
22764;SDS011;11549;50.852;3.816;2022-12-26T09:11:30;8.20;;;3.05;;
22764;SDS011;11549;50.852;3.816;2022-12-26T09:14:00;10.45;;;3.00;;
22764;SDS011;11549;50.852;3.816;2022-12-26T09:16:30;6.55;;;3.00;;
22764;SDS011;11549;50.852;3.816;2022-12-26T09:19:06;10.77;;;3.20;;
22764;SDS011;11549;50.852;3.816;2022-12-26T09:21:38;8.40;;;2.90;;
22764;SDS011;11549;50.852;3.816;2022-12-26T09:24:10;10.93;;;2.88;;
22764;SDS011;11549;50.852;3.816;2022-12-26T09:26:42;8.82;;;2.70;;
22764;SDS011;11549;50.852;3.816;2022-12-26T09:29:12;5.50;;;2.33;;
22764;SDS011;11549;50.852;3.816;2022-12-26T09:31:40;11.35;;;2.88;;
22764;SDS011;11549;50.852;3.816;2022-12-26T09:34:09;6.97;;;2.50;;
22764;SDS011;11549;50.852;3.816;2022-12-26T09:36:38;12.90;;;2.92;;
22764;SDS011;11549;50.852;3.816;2022-12-26T09:39:06;7.40;;;2.60;;
22764;SDS011;11549;50.852;3.816;2022-12-26T09:41:45;8.65;;;3.08;;
22764;SDS011;11549;50.852;3.816;2022-12-26T09:44:30;6.00;;;2.97;;
22764;SDS011;11549;50.852;3.816;2022-12-26T09:47:13;5.57;;;2.33;;
22764;SDS011;11549;50.852;3.816;2022-12-26T09:49:58;7.78;;;2.70;;
22764;SDS011;11549;50.852;3.816;2022-12-26T09:52:36;6.78;;;2.35;;
22764;SDS011;11549;50.852;3.816;2022-12-26T09:55:15;6.43;;;2.55;;
22764;SDS011;11549;50.852;3.816;2022-12-26T09:58:18;5.63;;;2.55;;
22764;SDS011;11549;50.852;3.816;2022-12-26T10:00:54;8.00;;;2.50;;
22764;SDS011;11549;50.852;3.816;2022-12-26T10:03:26;8.00;;;2.67;;
22764;SDS011;11549;50.852;3.816;2022-12-26T10:06:07;8.07;;;2.75;;
22764;SDS011;11549;50.852;3.816;2022-12-26T10:08:42;6.47;;;2.55;;
22764;SDS011;11549;50.852;3.816;2022-12-26T10:11:24;8.85;;;2.90;;
22764;SDS011;11549;50.852;3.816;2022-12-26T10:14:07;7.35;;;2.97;;
22764;SDS011;11549;50.852;3.816;2022-12-26T10:16:49;5.15;;;1.50;;
22764;SDS011;11549;50.852;3.816;2022-12-26T10:19:27;5.53;;;1.90;;
22764;SDS011;11549;50.852;3.816;2022-12-26T10:25:09;6.57;;;1.42;;
22764;SDS011;11549;50.852;3.816;2022-12-26T10:27:43;6.07;;;1.60;;
22764;SDS011;11549;50.852;3.816;2022-12-26T10:30:17;6.60;;;1.50;;
22764;SDS011;11549;50.852;3.816;2022-12-26T10:32:49;7.55;;;1.92;;
22764;SDS011;11549;50.852;3.816;2022-12-26T10:35:22;9.95;;;2.15;;
22764;SDS011;11549;50.852;3.816;2022-12-26T10:37:57;12.80;;;2.47;;
22764;SDS011;11549;50.852;3.816;2022-12-26T10:40:35;7.30;;;1.45;;
22764;SDS011;11549;50.852;3.816;2022-12-26T10:43:13;7.22;;;1.60;;
22764;SDS011;11549;50.852;3.816;2022-12-26T10:45:52;7.68;;;1.70;;
22764;SDS011;11549;50.852;3.816;2022-12-26T10:48:28;8.93;;;2.00;;
22764;SDS011;11549;50.852;3.816;2022-12-26T10:50:56;11.18;;;2.53;;
22764;SDS011;11549;50.852;3.816;2022-12-26T10:53:25;8.57;;;2.10;;
22764;SDS011;11549;50.852;3.816;2022-12-26T10:55:53;11.05;;;2.45;;
22764;SDS011;11549;50.852;3.816;2022-12-26T10:58:24;7.38;;;1.70;;
22764;SDS011;11549;50.852;3.816;2022-12-26T11:01:00;8.10;;;2.22;;
22764;SDS011;11549;50.852;3.816;2022-12-26T11:04:00;9.18;;;2.65;;
22764;SDS011;11549;50.852;3.816;2022-12-26T11:06:30;11.00;;;2.25;;
22764;SDS011;11549;50.852;3.816;2022-12-26T11:09:00;8.45;;;1.70;;
22764;SDS011;11549;50.852;3.816;2022-12-26T11:11:29;8.60;;;2.08;;
22764;SDS011;11549;50.852;3.816;2022-12-26T11:14:22;11.40;;;2.30;;
22764;SDS011;11549;50.852;3.816;2022-12-26T11:17:02;11.48;;;2.00;;
22764;SDS011;11549;50.852;3.816;2022-12-26T11:19:33;15.95;;;2.75;;
22764;SDS011;11549;50.852;3.816;2022-12-26T11:25:02;12.63;;;2.00;;
22764;SDS011;11549;50.852;3.816;2022-12-26T11:27:43;9.02;;;1.85;;
22764;SDS011;11549;50.852;3.816;2022-12-26T11:30:20;6.60;;;1.65;;
22764;SDS011;11549;50.852;3.816;2022-12-26T11:33:05;7.47;;;1.48;;
22764;SDS011;11549;50.852;3.816;2022-12-26T11:35:50;6.57;;;1.50;;
22764;SDS011;11549;50.852;3.816;2022-12-26T11:38:21;8.15;;;1.50;;
22764;SDS011;11549;50.852;3.816;2022-12-26T11:41:11;8.75;;;1.95;;
22764;SDS011;11549;50.852;3.816;2022-12-26T11:44:12;9.00;;;1.50;;
22764;SDS011;11549;50.852;3.816;2022-12-26T11:46:47;9.00;;;1.70;;
22764;SDS011;11549;50.852;3.816;2022-12-26T11:49:21;11.02;;;1.65;;
22764;SDS011;11549;50.852;3.816;2022-12-26T11:51:54;11.50;;;1.80;;
22764;SDS011;11549;50.852;3.816;2022-12-26T11:54:27;11.30;;;1.40;;
22764;SDS011;11549;50.852;3.816;2022-12-26T11:57:14;11.35;;;1.50;;
22764;SDS011;11549;50.852;3.816;2022-12-26T11:59:46;13.88;;;2.33;;
22764;SDS011;11549;50.852;3.816;2022-12-26T12:02:20;9.15;;;1.65;;
22764;SDS011;11549;50.852;3.816;2022-12-26T12:04:58;11.25;;;1.90;;
22764;SDS011;11549;50.852;3.816;2022-12-26T12:13:26;11.90;;;2.20;;
22764;SDS011;11549;50.852;3.816;2022-12-26T12:16:06;13.10;;;3.33;;
22764;SDS011;11549;50.852;3.816;2022-12-26T12:18:45;10.65;;;2.90;;
22764;SDS011;11549;50.852;3.816;2022-12-26T12:21:23;8.57;;;1.77;;
22764;SDS011;11549;50.852;3.816;2022-12-26T12:27:00;11.38;;;2.05;;
22764;SDS011;11549;50.852;3.816;2022-12-26T12:29:46;11.40;;;2.30;;
22764;SDS011;11549;50.852;3.816;2022-12-26T12:32:24;9.52;;;1.73;;
22764;SDS011;11549;50.852;3.816;2022-12-26T12:37:59;10.57;;;1.75;;
22764;SDS011;11549;50.852;3.816;2022-12-26T12:40:45;13.07;;;1.95;;
22764;SDS011;11549;50.852;3.816;2022-12-26T12:43:21;7.47;;;1.55;;
22764;SDS011;11549;50.852;3.816;2022-12-26T12:45:57;11.07;;;1.80;;
22764;SDS011;11549;50.852;3.816;2022-12-26T12:48:38;8.20;;;1.90;;
22764;SDS011;11549;50.852;3.816;2022-12-26T12:51:15;11.13;;;2.10;;
22764;SDS011;11549;50.852;3.816;2022-12-26T12:54:01;11.90;;;1.98;;
22764;SDS011;11549;50.852;3.816;2022-12-26T12:56:50;13.98;;;1.95;;
22764;SDS011;11549;50.852;3.816;2022-12-26T12:59:25;12.05;;;1.70;;
22764;SDS011;11549;50.852;3.816;2022-12-26T13:02:01;8.77;;;1.50;;
22764;SDS011;11549;50.852;3.816;2022-12-26T13:04:39;11.10;;;1.60;;
22764;SDS011;11549;50.852;3.816;2022-12-26T13:07:12;9.52;;;1.80;;
22764;SDS011;11549;50.852;3.816;2022-12-26T13:09:47;14.70;;;2.42;;
22764;SDS011;11549;50.852;3.816;2022-12-26T13:12:19;10.80;;;1.80;;
22764;SDS011;11549;50.852;3.816;2022-12-26T13:14:51;12.98;;;2.28;;
22764;SDS011;11549;50.852;3.816;2022-12-26T13:17:24;8.88;;;1.70;;
22764;SDS011;11549;50.852;3.816;2022-12-26T13:19:59;8.55;;;1.75;;
22764;SDS011;11549;50.852;3.816;2022-12-26T13:22:32;13.05;;;2.38;;
22764;SDS011;11549;50.852;3.816;2022-12-26T13:25:20;12.38;;;2.20;;
22764;SDS011;11549;50.852;3.816;2022-12-26T13:27:52;10.97;;;2.60;;
22764;SDS011;11549;50.852;3.816;2022-12-26T13:30:35;11.27;;;2.45;;
22764;SDS011;11549;50.852;3.816;2022-12-26T13:33:04;14.10;;;2.05;;
22764;SDS011;11549;50.852;3.816;2022-12-26T13:35:49;10.50;;;2.13;;
22764;SDS011;11549;50.852;3.816;2022-12-26T13:38:23;8.55;;;1.55;;
22764;SDS011;11549;50.852;3.816;2022-12-26T13:40:55;12.50;;;1.65;;
22764;SDS011;11549;50.852;3.816;2022-12-26T13:43:59;12.63;;;1.70;;
22764;SDS011;11549;50.852;3.816;2022-12-26T13:46:33;9.02;;;1.40;;
22764;SDS011;11549;50.852;3.816;2022-12-26T13:49:03;7.80;;;1.38;;
22764;SDS011;11549;50.852;3.816;2022-12-26T13:51:49;9.48;;;1.48;;
22764;SDS011;11549;50.852;3.816;2022-12-26T13:54:20;9.63;;;1.52;;
22764;SDS011;11549;50.852;3.816;2022-12-26T13:57:06;10.00;;;1.63;;
22764;SDS011;11549;50.852;3.816;2022-12-26T14:00:04;8.07;;;1.35;;
22764;SDS011;11549;50.852;3.816;2022-12-26T14:02:50;10.95;;;1.50;;
22764;SDS011;11549;50.852;3.816;2022-12-26T14:08:59;9.80;;;1.55;;
22764;SDS011;11549;50.852;3.816;2022-12-26T14:11:46;10.27;;;2.08;;
22764;SDS011;11549;50.852;3.816;2022-12-26T14:14:27;11.48;;;1.90;;
22764;SDS011;11549;50.852;3.816;2022-12-26T14:17:07;11.45;;;1.80;;
22764;SDS011;11549;50.852;3.816;2022-12-26T14:19:44;8.30;;;1.77;;
22764;SDS011;11549;50.852;3.816;2022-12-26T14:22:24;7.40;;;1.88;;
22764;SDS011;11549;50.852;3.816;2022-12-26T14:25:04;7.85;;;1.60;;
22764;SDS011;11549;50.852;3.816;2022-12-26T14:27:43;9.38;;;1.50;;
22764;SDS011;11549;50.852;3.816;2022-12-26T14:30:23;11.30;;;1.60;;
22764;SDS011;11549;50.852;3.816;2022-12-26T14:33:08;6.10;;;1.40;;
22764;SDS011;11549;50.852;3.816;2022-12-26T14:35:52;8.38;;;1.40;;
22764;SDS011;11549;50.852;3.816;2022-12-26T14:38:32;6.15;;;1.42;;
22764;SDS011;11549;50.852;3.816;2022-12-26T14:41:12;11.32;;;2.40;;
22764;SDS011;11549;50.852;3.816;2022-12-26T14:43:56;8.38;;;2.70;;
22764;SDS011;11549;50.852;3.816;2022-12-26T14:49:35;16.83;;;5.03;;
22764;SDS011;11549;50.852;3.816;2022-12-26T14:58:25;9.82;;;2.88;;
22764;SDS011;11549;50.852;3.816;2022-12-26T15:04:04;13.73;;;4.47;;
22764;SDS011;11549;50.852;3.816;2022-12-26T15:12:58;11.57;;;2.80;;
22764;SDS011;11549;50.852;3.816;2022-12-26T15:15:58;10.70;;;2.47;;
22764;SDS011;11549;50.852;3.816;2022-12-26T15:25:18;7.88;;;2.20;;
22764;SDS011;11549;50.852;3.816;2022-12-26T15:28:11;7.53;;;2.03;;
22764;SDS011;11549;50.852;3.816;2022-12-26T15:31:06;9.38;;;2.03;;
22764;SDS011;11549;50.852;3.816;2022-12-26T15:33:47;6.07;;;1.70;;
22764;SDS011;11549;50.852;3.816;2022-12-26T15:36:21;7.32;;;2.13;;
22764;SDS011;11549;50.852;3.816;2022-12-26T15:38:57;8.82;;;2.20;;
22764;SDS011;11549;50.852;3.816;2022-12-26T15:44:07;8.88;;;2.20;;
22764;SDS011;11549;50.852;3.816;2022-12-26T15:46:47;9.82;;;2.38;;
22764;SDS011;11549;50.852;3.816;2022-12-26T15:49:28;9.80;;;2.72;;
22764;SDS011;11549;50.852;3.816;2022-12-26T15:52:13;8.82;;;2.70;;
22764;SDS011;11549;50.852;3.816;2022-12-26T15:55:00;9.40;;;2.35;;
22764;SDS011;11549;50.852;3.816;2022-12-26T16:00:24;11.73;;;2.42;;
22764;SDS011;11549;50.852;3.816;2022-12-26T16:03:00;13.82;;;2.83;;
22764;SDS011;11549;50.852;3.816;2022-12-26T16:05:46;8.93;;;2.42;;
22764;SDS011;11549;50.852;3.816;2022-12-26T16:11:28;8.20;;;2.47;;
22764;SDS011;11549;50.852;3.816;2022-12-26T16:14:00;13.35;;;2.60;;
22764;SDS011;11549;50.852;3.816;2022-12-26T16:16:31;8.88;;;2.53;;
22764;SDS011;11549;50.852;3.816;2022-12-26T16:19:15;12.25;;;2.42;;
22764;SDS011;11549;50.852;3.816;2022-12-26T16:21:45;9.68;;;2.40;;
22764;SDS011;11549;50.852;3.816;2022-12-26T16:24:34;13.00;;;3.05;;
22764;SDS011;11549;50.852;3.816;2022-12-26T16:27:06;10.75;;;2.60;;
22764;SDS011;11549;50.852;3.816;2022-12-26T16:29:43;13.18;;;2.80;;
22764;SDS011;11549;50.852;3.816;2022-12-26T16:32:15;15.40;;;3.13;;